createdAt,value
2017-11-11T00:00:01.313Z,14.3
2017-11-11T00:05:01.976Z,14.3
2017-11-11T00:10:01.715Z,14.3
2017-11-11T00:15:01.881Z,14.3
2017-11-11T00:20:02.093Z,14.4
2017-11-11T00:25:02.059Z,14.4
2017-11-11T00:30:01.943Z,14.4
2017-11-11T00:35:01.355Z,14.3
2017-11-11T00:40:01.753Z,14.2
2017-11-11T00:45:01.649Z,14.2
2017-11-11T00:50:01.715Z,14
2017-11-11T00:55:02.310Z,14.1
2017-11-11T01:00:01.280Z,14.1
2017-11-11T01:05:01.727Z,14
2017-11-11T01:10:01.584Z,14
2017-11-11T01:15:01.606Z,14
2017-11-11T01:20:01.421Z,14
2017-11-11T01:25:01.640Z,14.1
2017-11-11T01:30:01.924Z,14.1
2017-11-11T01:35:01.704Z,14.2
2017-11-11T01:40:01.484Z,14.2
2017-11-11T01:45:01.997Z,14.2
2017-11-11T01:50:01.700Z,14.2
2017-11-11T01:55:01.744Z,14.2
2017-11-11T02:00:02.866Z,14.2
2017-11-11T02:05:01.662Z,14.1
2017-11-11T02:10:01.616Z,14.1
2017-11-11T02:15:01.378Z,14.1
2017-11-11T02:20:02.609Z,14.1
2017-11-11T02:25:01.282Z,14.1
2017-11-11T02:30:01.247Z,14.1
2017-11-11T02:35:01.981Z,14
2017-11-11T02:40:02.255Z,14
2017-11-11T02:45:01.483Z,14
2017-11-11T02:50:01.242Z,13.9
2017-11-11T02:55:01.190Z,13.9
2017-11-11T03:00:02.465Z,13.9
2017-11-11T03:05:01.356Z,14
2017-11-11T03:10:01.417Z,14
2017-11-11T03:15:01.750Z,14
2017-11-11T03:20:02.146Z,14
2017-11-11T03:25:01.879Z,14
2017-11-11T03:30:01.581Z,13.9
2017-11-11T03:35:02.083Z,14
2017-11-11T03:40:01.820Z,14.1
2017-11-11T03:45:02.096Z,14.1
2017-11-11T03:50:01.968Z,14.2
2017-11-11T03:55:02.028Z,14.2
2017-11-11T04:00:02.020Z,14.1
2017-11-11T04:05:02.127Z,14.1
2017-11-11T04:10:01.856Z,14.2
2017-11-11T04:15:02.332Z,14.1
2017-11-11T04:20:01.735Z,14.1
2017-11-11T04:25:01.800Z,14.1
2017-11-11T04:30:01.949Z,14
2017-11-11T04:35:01.536Z,14.1
2017-11-11T04:40:01.661Z,14.2
2017-11-11T04:45:01.863Z,14.2
2017-11-11T04:50:02.117Z,14.2
2017-11-11T04:55:01.755Z,14.2
2017-11-11T05:00:02.048Z,14.2
2017-11-11T05:05:02.052Z,14.2
2017-11-11T05:10:02.246Z,14.2
2017-11-11T05:15:01.819Z,14.2
2017-11-11T05:20:01.799Z,14.3
2017-11-11T05:25:01.611Z,14.3
2017-11-11T05:30:03.245Z,14.4
2017-11-11T05:35:01.344Z,14.3
2017-11-11T05:40:01.466Z,14.3
2017-11-11T05:45:01.395Z,14.3
2017-11-11T05:50:02.539Z,14.2
2017-11-11T05:55:01.703Z,14.2
2017-11-11T06:00:02.175Z,14.1
2017-11-11T06:05:01.680Z,14.2
2017-11-11T06:10:02.273Z,14.2
2017-11-11T06:15:01.313Z,14.3
2017-11-11T06:20:02.002Z,14.2
2017-11-11T06:25:01.817Z,14.2
2017-11-11T06:30:01.991Z,14.2
2017-11-11T06:35:01.354Z,14.2
2017-11-11T06:40:01.779Z,14.2
2017-11-11T06:45:01.992Z,14.2
2017-11-11T06:50:01.774Z,14.2
2017-11-11T06:55:01.212Z,14.2
2017-11-11T07:00:03.425Z,14.2
2017-11-11T07:05:02.131Z,14.2
2017-11-11T07:10:01.621Z,14.4
2017-11-11T07:15:01.822Z,14.2
2017-11-11T07:20:02.202Z,14.2
2017-11-11T07:25:01.696Z,14.3
2017-11-11T07:30:02.152Z,14.2
2017-11-11T07:35:01.849Z,14.2
2017-11-11T07:40:02.150Z,14.2
2017-11-11T07:45:01.824Z,14.2
2017-11-11T07:50:01.405Z,14.2
2017-11-11T07:55:01.970Z,14.2
2017-11-11T08:00:02.469Z,14.1
2017-11-11T08:05:01.275Z,14
2017-11-11T08:10:01.538Z,14
2017-11-11T08:15:01.725Z,13.9
2017-11-11T08:20:02.367Z,14
2017-11-11T08:25:02.051Z,13.9
2017-11-11T08:30:01.231Z,14
2017-11-11T08:35:01.232Z,14
2017-11-11T08:40:02.513Z,14
2017-11-11T08:45:01.785Z,14.1
2017-11-11T08:50:02.005Z,14.3
2017-11-11T08:55:01.669Z,14.3
2017-11-11T09:00:02.413Z,14.3
2017-11-11T09:05:01.185Z,14.4
2017-11-11T09:10:01.534Z,14.4
2017-11-11T09:15:01.539Z,14.4
2017-11-11T09:20:01.877Z,14.5
2017-11-11T09:25:02.161Z,14.3
2017-11-11T09:30:01.834Z,14.3
2017-11-11T09:35:02.512Z,14.3
2017-11-11T09:40:01.282Z,14.1
2017-11-11T09:45:01.962Z,13.8
2017-11-11T09:50:02.068Z,14
2017-11-11T09:55:02.044Z,14.2
2017-11-11T10:00:02.098Z,14.2
2017-11-11T10:05:01.456Z,14.2
2017-11-11T10:10:01.795Z,14.2
2017-11-11T10:15:01.758Z,14
2017-11-11T10:20:01.651Z,14.2
2017-11-11T10:25:02.531Z,14.2
2017-11-11T10:30:02.054Z,14.2
2017-11-11T10:35:02.018Z,14.2
2017-11-11T10:40:02.669Z,14.3
2017-11-11T10:45:01.679Z,14.3
2017-11-11T10:50:01.478Z,14.3
2017-11-11T10:55:01.408Z,14.3
2017-11-11T11:00:01.919Z,14.3
2017-11-11T11:05:01.410Z,14.3
2017-11-11T11:10:01.770Z,14
2017-11-11T11:15:02.640Z,14
2017-11-11T11:20:01.888Z,14
2017-11-11T11:25:02.058Z,14
2017-11-11T11:30:01.435Z,14
2017-11-11T11:35:02.174Z,14
2017-11-11T11:40:01.430Z,14
2017-11-11T11:45:01.302Z,14.1
2017-11-11T11:50:02.787Z,14
2017-11-11T11:55:02.030Z,14
2017-11-11T12:00:01.882Z,14.1
2017-11-11T12:05:01.686Z,13.9
2017-11-11T12:10:02.145Z,14.2
2017-11-11T12:15:02.050Z,14
2017-11-11T12:20:02.069Z,14.1
2017-11-11T12:25:01.822Z,14.1
2017-11-11T12:30:02.485Z,14.1
2017-11-11T12:35:01.346Z,14
2017-11-11T12:40:01.698Z,14
2017-11-11T12:45:01.618Z,14.1
2017-11-11T12:50:01.851Z,14.1
2017-11-11T12:55:01.270Z,14.1
2017-11-11T13:00:01.710Z,14.1
2017-11-11T13:05:01.875Z,14.1
2017-11-11T13:10:01.881Z,14.1
2017-11-11T13:15:01.455Z,14.1
2017-11-11T13:20:01.827Z,14.1
2017-11-11T13:25:02.144Z,14.1
2017-11-11T13:30:01.491Z,13.9
2017-11-11T13:35:02.322Z,13.9
2017-11-11T13:40:01.197Z,13.9
2017-11-11T13:45:02.150Z,13.8
2017-11-11T13:50:01.214Z,13.8
2017-11-11T13:55:01.611Z,13.8
2017-11-11T14:00:01.957Z,13.5
2017-11-11T14:05:01.857Z,13.6
2017-11-11T14:10:02.201Z,13.6
2017-11-11T14:15:01.685Z,13.6
2017-11-11T14:20:01.476Z,13.6
2017-11-11T14:25:01.742Z,13.6
2017-11-11T14:30:02.522Z,13.7
2017-11-11T14:35:01.176Z,13.7
2017-11-11T14:40:01.629Z,13.7
2017-11-11T14:45:01.671Z,13.6
2017-11-11T14:50:02.053Z,13.6
2017-11-11T14:55:01.900Z,13.6
2017-11-11T15:00:01.263Z,13.6
2017-11-11T15:05:01.842Z,13.8
2017-11-11T15:10:01.745Z,13.8
2017-11-11T15:15:02.156Z,13.8
2017-11-11T15:20:02.004Z,13.9
2017-11-11T15:25:01.822Z,13.9
2017-11-11T15:30:01.917Z,13.9
2017-11-11T15:35:01.563Z,13.9
2017-11-11T15:40:01.910Z,14.1
2017-11-11T15:45:01.406Z,14.1
2017-11-11T15:50:01.345Z,14
2017-11-11T15:55:02.341Z,14.1
2017-11-11T16:00:01.251Z,14.2
2017-11-11T16:05:01.824Z,14.2
2017-11-11T16:10:01.873Z,14.4
2017-11-11T16:15:02.354Z,14.3
2017-11-11T16:20:01.998Z,14.3
2017-11-11T16:25:02.160Z,14.3
2017-11-11T16:30:01.215Z,14.3
2017-11-11T16:35:01.702Z,14.2
2017-11-11T16:40:01.477Z,14.3
2017-11-11T16:45:01.618Z,14.2
2017-11-11T16:50:02.544Z,14.2
2017-11-11T16:55:01.176Z,14.4
2017-11-11T17:00:01.275Z,14.3
2017-11-11T17:05:02.067Z,14.3
2017-11-11T17:10:01.619Z,14.4
2017-11-11T17:15:01.619Z,14.5
2017-11-11T17:20:01.407Z,14.4
2017-11-11T17:25:01.875Z,14.4
2017-11-11T17:30:01.799Z,14.4
2017-11-11T17:35:01.323Z,14.6
2017-11-11T17:40:02.478Z,14.6
2017-11-11T17:45:01.670Z,14.8
2017-11-11T17:50:02.116Z,14.8
2017-11-11T17:55:01.727Z,14.9
2017-11-11T18:00:02.504Z,14.9
2017-11-11T18:05:01.375Z,14.9
2017-11-11T18:10:01.637Z,14.9
2017-11-11T18:15:01.408Z,14.9
2017-11-11T18:20:02.555Z,15
2017-11-11T18:25:01.282Z,15
2017-11-11T18:30:01.359Z,15
2017-11-11T18:35:02.411Z,15
2017-11-11T18:40:01.664Z,15
2017-11-11T18:45:02.183Z,15
2017-11-11T18:50:01.245Z,15
2017-11-11T18:55:02.186Z,15
2017-11-11T19:00:01.222Z,15
2017-11-11T19:05:01.923Z,15
2017-11-11T19:10:02.407Z,15
2017-11-11T19:15:01.516Z,15
2017-11-11T19:20:01.391Z,15
2017-11-11T19:25:01.220Z,15
2017-11-11T19:30:02.021Z,15
2017-11-11T19:35:01.399Z,15
2017-11-11T19:40:01.837Z,15
2017-11-11T19:45:02.054Z,15
2017-11-11T19:50:01.898Z,15
2017-11-11T19:55:01.562Z,15
2017-11-11T20:00:01.949Z,15
2017-11-11T20:05:01.551Z,15.1
2017-11-11T20:10:01.393Z,15.1
2017-11-11T20:15:02.503Z,15.1
2017-11-11T20:20:02.794Z,15.1
2017-11-11T20:25:01.213Z,15
2017-11-11T20:30:01.621Z,15
2017-11-11T20:35:01.642Z,15
2017-11-11T20:40:01.276Z,15
2017-11-11T20:45:02.010Z,15
2017-11-11T20:50:02.113Z,15
2017-11-11T20:55:02.010Z,15.2
2017-11-11T21:00:02.198Z,15.1
2017-11-11T21:05:01.673Z,15.2
2017-11-11T21:10:01.996Z,15.3
2017-11-11T21:15:01.922Z,15.3
2017-11-11T21:20:01.882Z,15.3
2017-11-11T21:25:01.920Z,15.4
2017-11-11T21:30:02.085Z,15.2
2017-11-11T21:35:01.626Z,15.2
2017-11-11T21:40:01.889Z,15.1
2017-11-11T21:45:01.541Z,15.1
2017-11-11T21:50:01.414Z,15.2
2017-11-11T21:55:02.033Z,15.2
2017-11-11T22:00:02.125Z,15.4
2017-11-11T22:05:01.659Z,15.4
2017-11-11T22:10:01.965Z,15.3
2017-11-11T22:15:01.570Z,15.5
2017-11-11T22:20:01.701Z,15.4
2017-11-11T22:25:02.050Z,15.3
2017-11-11T22:30:01.236Z,15.2
2017-11-11T22:35:01.582Z,15.4
2017-11-11T22:40:01.813Z,15.4
2017-11-11T22:45:02.006Z,15.4
2017-11-11T22:50:01.925Z,15.4
2017-11-11T22:55:02.241Z,15.3
2017-11-11T23:00:01.463Z,15.4
2017-11-11T23:05:01.203Z,15.4
2017-11-11T23:10:02.485Z,15.4
2017-11-11T23:15:01.668Z,15.2
2017-11-11T23:20:01.832Z,15.2
2017-11-11T23:25:02.457Z,15.2
2017-11-11T23:30:01.250Z,15.2
2017-11-11T23:35:01.727Z,15.3
2017-11-11T23:40:01.616Z,15.3
2017-11-11T23:45:01.330Z,15.3
2017-11-11T23:50:02.048Z,15.4
2017-11-11T23:55:02.104Z,15.4
